Time;durP1;ratioP1;P1;durP2;ratioP2;P2;SDS_P1;SDS_P2;PMS_P1;PMS_P2;Temp;Humidity;BMP_temperature;BMP_pressure;BME280_temperature;BME280_humidity;BME280_pressure;Samples;Min_cycle;Max_cycle;Signal;HPM_P1;HPM_P2
2023/05/17 00:00:09;;;;;;;12.47;4.00;;;8.50;39.30;;;;;;5073518;28;20303;-76
2023/05/17 00:02:35;;;;;;;7.47;3.63;;;8.50;42.40;;;;;;5080952;28;20457;-73
2023/05/17 00:05:02;;;;;;;21.40;3.37;;;8.50;39.60;;;;;;5095181;28;20409;-72
2023/05/17 00:07:28;;;;;;;8.03;3.37;;;8.40;31.50;;;;;;5089756;28;20490;-72
2023/05/17 00:09:53;;;;;;;15.00;3.27;;;8.40;21.00;;;;;;5083502;28;20761;-74
2023/05/17 00:12:21;;;;;;;7.07;4.20;;;8.50;19.20;;;;;;5090797;28;20199;-73
2023/05/17 00:14:47;;;;;;;17.00;4.93;;;8.40;17.10;;;;;;5074588;28;20163;-73
2023/05/17 00:17:13;;;;;;;8.53;4.20;;;8.40;14.60;;;;;;5074671;28;20398;-74
2023/05/17 00:19:41;;;;;;;12.77;4.97;;;8.40;15.80;;;;;;5086653;28;20178;-73
2023/05/17 00:22:07;;;;;;;10.57;3.53;;;8.30;10.80;;;;;;5088260;28;20234;-72
2023/05/17 00:24:33;;;;;;;9.93;3.83;;;8.30;7.50;;;;;;5072985;28;20943;-72
2023/05/17 00:26:59;;;;;;;8.30;4.27;;;8.20;1.00;;;;;;5074305;28;20206;-72
2023/05/17 00:29:24;;;;;;;12.53;3.60;;;8.20;1.00;;;;;;5085182;28;20261;-72
2023/05/17 00:31:50;;;;;;;5.40;3.30;;;8.20;1.00;;;;;;5085724;28;20837;-72
2023/05/17 00:34:16;;;;;;;11.43;4.20;;;8.20;1.00;;;;;;5073171;28;20192;-72
2023/05/17 00:36:42;;;;;;;13.30;3.70;;;8.10;1.00;;;;;;5079193;28;20188;-73
2023/05/17 00:39:08;;;;;;;7.33;3.00;;;8.10;1.00;;;;;;5094291;28;20428;-74
2023/05/17 00:41:33;;;;;;;9.47;3.30;;;8.00;1.00;;;;;;5089133;28;20592;-72
2023/05/17 00:43:59;;;;;;;9.30;4.20;;;7.90;1.00;;;;;;5073982;28;20199;-73
2023/05/17 00:46:25;;;;;;;10.03;4.20;;;7.90;1.00;;;;;;5076250;28;20256;-74
2023/05/17 00:48:51;;;;;;;12.73;3.37;;;8.00;1.00;;;;;;5088573;28;20824;-72
2023/05/17 00:51:19;;;;;;;13.87;3.70;;;7.90;1.00;;;;;;5083400;28;20482;-73
2023/05/17 00:53:46;;;;;;;8.60;3.30;;;7.80;1.00;;;;;;5073753;28;20946;-72
2023/05/17 00:56:12;;;;;;;12.53;4.07;;;7.80;1.00;;;;;;5073592;28;20417;-72
2023/05/17 00:58:48;;;;;;;11.37;3.77;;;7.80;1.00;;;;;;5080284;28;20506;-72
2023/05/17 01:01:55;;;;;;;7.37;3.70;;;7.80;1.00;;;;;;5091998;28;20448;-73
2023/05/17 01:04:21;;;;;;;6.70;2.83;;;7.80;1.00;;;;;;5062388;28;20452;-73
2023/05/17 01:06:47;;;;;;;7.87;3.00;;;7.70;1.00;;;;;;5090474;28;20548;-72
2023/05/17 01:09:13;;;;;;;7.70;3.43;;;7.80;1.00;;;;;;5083394;28;20439;-71
2023/05/17 01:12:06;;;;;;;13.13;3.23;;;7.70;1.00;;;;;;5093105;28;20443;-71
2023/05/17 01:15:13;;;;;;;2.50;2.33;;;7.70;1.00;;;;;;5080731;28;20167;-74
2023/05/17 01:18:01;;;;;;;10.83;5.50;;;7.60;1.00;;;;;;5062464;28;20445;-71
2023/05/17 01:20:37;;;;;;;3.77;2.87;;;7.60;1.00;;;;;;5091278;28;20946;-73
2023/05/17 01:23:19;;;;;;;7.50;2.30;;;7.60;1.00;;;;;;5091554;28;20529;-73
2023/05/17 01:26:01;;;;;;;6.47;3.30;;;7.60;1.00;;;;;;5092201;28;20427;-73
2023/05/17 01:28:31;;;;;;;4.80;2.70;;;7.60;1.00;;;;;;5092268;28;20412;-73
2023/05/17 01:31:01;;;;;;;5.20;2.93;;;7.60;1.00;;;;;;5071906;28;20420;-73
2023/05/17 01:33:28;;;;;;;8.13;4.10;;;7.60;1.00;;;;;;5072889;28;20425;-72
2023/05/17 01:35:57;;;;;;;10.43;3.30;;;7.70;1.00;;;;;;5092367;28;20400;-72
2023/05/17 01:38:23;;;;;;;7.13;3.33;;;7.60;1.00;;;;;;5093491;28;20396;-73
2023/05/17 01:41:15;;;;;;;9.73;3.60;;;7.70;1.00;;;;;;5072229;28;20420;-72
2023/05/17 01:43:46;;;;;;;6.87;2.80;;;7.60;1.00;;;;;;5077310;28;20424;-72
2023/05/17 01:46:36;;;;;;;8.37;3.00;;;7.60;1.00;;;;;;5093283;28;20393;-71
2023/05/17 01:49:10;;;;;;;6.70;2.83;;;7.70;1.00;;;;;;5085835;28;20409;-72
2023/05/17 01:51:56;;;;;;;17.87;4.43;;;7.60;1.00;;;;;;5071475;28;20408;-71
2023/05/17 01:54:29;;;;;;;9.00;3.20;;;7.60;1.00;;;;;;5071566;28;20821;-72
2023/05/17 01:56:58;;;;;;;6.83;2.83;;;7.70;1.00;;;;;;5074143;28;21011;-73
2023/05/17 01:59:25;;;;;;;9.30;3.43;;;7.70;1.00;;;;;;5079908;28;20424;-72
2023/05/17 02:02:05;;;;;;;11.50;3.27;;;7.70;1.00;;;;;;5071951;28;20394;-73
2023/05/17 02:04:31;;;;;;;11.90;2.97;;;7.80;1.00;;;;;;5084329;28;20427;-72
2023/05/17 02:06:57;;;;;;;4.70;2.47;;;7.80;1.00;;;;;;5092705;28;20535;-73
2023/05/17 02:09:23;;;;;;;10.67;3.40;;;7.80;1.00;;;;;;5080552;28;20597;-71
2023/05/17 02:11:49;;;;;;;2.90;2.70;;;7.70;1.00;;;;;;5069990;28;20265;-73
2023/05/17 02:14:18;;;;;;;6.47;3.20;;;7.70;1.00;;;;;;5082852;28;20431;-72
2023/05/17 02:16:44;;;;;;;14.77;3.30;;;7.70;1.00;;;;;;5093023;28;20174;-71
2023/05/17 02:19:11;;;;;;;9.60;2.60;;;7.60;1.00;;;;;;5083769;28;20824;-71
2023/05/17 02:21:39;;;;;;;7.47;3.40;;;7.60;1.00;;;;;;5071864;28;20174;-72
2023/05/17 02:24:08;;;;;;;9.70;4.30;;;7.60;1.00;;;;;;5078589;28;20494;-71
2023/05/17 02:26:44;;;;;;;;;;;;;;;;;;;;;
2023/05/17 02:29:10;;;;;;;17.73;3.83;;;7.50;1.00;;;;;;5084626;28;20413;-72
2023/05/17 02:31:36;;;;;;;7.17;2.90;;;7.60;1.00;;;;;;5070735;28;20599;-73
2023/05/17 02:34:05;;;;;;;9.43;3.47;;;7.70;1.00;;;;;;5077987;28;20497;-73
2023/05/17 02:36:34;;;;;;;15.97;3.17;;;7.70;1.00;;;;;;5092840;28;20254;-71
2023/05/17 02:39:00;;;;;;;10.30;3.40;;;7.70;1.00;;;;;;5087075;28;20518;-71
2023/05/17 02:41:25;;;;;;;20.20;3.20;;;7.60;1.00;;;;;;5069506;28;20429;-74
2023/05/17 02:43:51;;;;;;;11.37;3.27;;;7.70;1.00;;;;;;5075298;28;20439;-73
2023/05/17 02:46:17;;;;;;;13.63;3.37;;;7.70;1.00;;;;;;5092318;28;20174;-72
2023/05/17 02:48:43;;;;;;;9.83;3.77;;;7.70;1.00;;;;;;5090464;28;20253;-73
2023/05/17 02:51:27;;;;;;;10.40;3.47;;;7.70;1.00;;;;;;5078001;28;20254;-71
2023/05/17 02:53:53;;;;;;;17.20;3.27;;;7.60;1.00;;;;;;5093117;28;20193;-71
2023/05/17 02:56:19;;;;;;;17.07;4.03;;;7.60;1.00;;;;;;5076278;28;20463;-70
2023/05/17 02:58:44;;;;;;;10.23;3.43;;;7.60;1.00;;;;;;5082097;28;20197;-72
2023/05/17 03:01:10;;;;;;;5.63;3.23;;;7.50;1.00;;;;;;5075234;28;20737;-71
2023/05/17 03:03:36;;;;;;;12.30;3.50;;;7.50;1.00;;;;;;5076635;28;20186;-73
2023/05/17 03:06:03;;;;;;;19.00;5.03;;;7.40;1.00;;;;;;5075641;28;20166;-71
2023/05/17 03:08:30;;;;;;;11.20;3.40;;;7.30;1.00;;;;;;5086914;28;20170;-73
2023/05/17 03:10:59;;;;;;;12.77;4.00;;;7.30;1.00;;;;;;5088250;28;20432;-72
2023/05/17 03:13:25;;;;;;;12.10;4.07;;;7.20;1.00;;;;;;5095865;28;20455;-72
2023/05/17 03:15:51;;;;;;;11.83;3.80;;;7.20;1.00;;;;;;5083659;28;20459;-73
2023/05/17 03:18:16;;;;;;;16.87;3.57;;;7.20;1.00;;;;;;5075726;28;20881;-72
2023/05/17 03:20:42;;;;;;;14.03;4.80;;;7.20;1.00;;;;;;5075900;28;20416;-72
2023/05/17 03:23:10;;;;;;;6.60;3.60;;;7.10;1.00;;;;;;5073533;28;20459;-73
2023/05/17 03:25:36;;;;;;;8.67;3.57;;;7.20;1.00;;;;;;5078988;28;20416;-73
2023/05/17 03:28:02;;;;;;;10.33;3.27;;;7.30;1.00;;;;;;5095347;28;20804;-73
2023/05/17 03:30:28;;;;;;;6.30;3.43;;;7.30;1.00;;;;;;5090498;28;20173;-72
2023/05/17 03:32:54;;;;;;;7.43;3.43;;;7.30;1.00;;;;;;5074205;28;20440;-72
2023/05/17 03:35:20;;;;;;;7.23;2.90;;;7.30;1.00;;;;;;5075397;28;20298;-74
2023/05/17 03:37:46;;;;;;;11.80;3.33;;;7.30;1.00;;;;;;5095414;28;20416;-72
2023/05/17 03:40:12;;;;;;;6.10;3.37;;;7.30;1.00;;;;;;5091595;28;20451;-72
2023/05/17 03:42:38;;;;;;;10.33;4.67;;;7.20;1.00;;;;;;5075080;28;20190;-71
2023/05/17 03:45:04;;;;;;;7.50;3.67;;;7.20;1.00;;;;;;5072814;28;20941;-71
2023/05/17 03:47:30;;;;;;;25.10;4.67;;;7.30;1.00;;;;;;5095481;28;20203;-71
2023/05/17 03:49:55;;;;;;;11.00;3.43;;;7.30;1.00;;;;;;5095208;28;20850;-71
2023/05/17 03:52:21;;;;;;;6.30;3.77;;;7.30;1.00;;;;;;5075459;28;20194;-73
2023/05/17 03:54:47;;;;;;;16.00;4.27;;;7.40;1.00;;;;;;5075536;28;20176;-71
2023/05/17 03:57:13;;;;;;;16.93;3.90;;;7.30;1.00;;;;;;5077287;28;20185;-72
2023/05/17 03:59:39;;;;;;;5.83;2.40;;;7.40;1.00;;;;;;5088541;28;20572;-73
2023/05/17 04:02:04;;;;;;;14.30;3.70;;;7.30;1.00;;;;;;5074018;28;20174;-71
2023/05/17 04:04:30;;;;;;;16.23;3.30;;;7.40;1.00;;;;;;5073883;28;20189;-70
2023/05/17 04:06:56;;;;;;;11.80;3.87;;;7.40;1.00;;;;;;5092078;28;20246;-72
2023/05/17 04:09:25;;;;;;;5.97;3.10;;;7.50;1.00;;;;;;5081472;28;20432;-71
2023/05/17 04:11:51;;;;;;;4.40;3.10;;;7.50;1.00;;;;;;5072980;28;20471;-71
2023/05/17 04:14:18;;;;;;;22.93;3.27;;;7.60;1.00;;;;;;5073389;28;20993;-72
2023/05/17 04:16:44;;;;;;;10.70;2.93;;;7.60;99.90;;;;;;5081085;28;20178;-70
2023/05/17 04:19:10;;;;;;;9.10;3.17;;;7.60;1.00;;;;;;5094798;28;20401;-72
2023/05/17 04:21:38;;;;;;;10.43;2.80;;;7.60;99.90;;;;;;5080180;28;21048;-71
2023/05/17 04:24:04;;;;;;;10.20;2.70;;;7.60;1.00;;;;;;5074282;28;20447;-72
2023/05/17 04:26:31;;;;;;;11.70;2.70;;;7.60;99.90;;;;;;5084083;28;20455;-72
2023/05/17 04:28:56;;;;;;;9.63;4.17;;;7.70;99.90;;;;;;5094649;28;20554;-72
2023/05/17 04:31:41;;;;;;;7.00;2.60;;;7.80;99.90;;;;;;5083199;28;20510;-73
2023/05/17 04:34:07;;;;;;;10.60;4.60;;;7.80;99.90;;;;;;5073684;28;20451;-72
2023/05/17 04:36:32;;;;;;;8.40;3.60;;;7.80;99.90;;;;;;5083227;28;20420;-73
2023/05/17 04:38:58;;;;;;;5.13;2.93;;;7.90;99.90;;;;;;5093616;28;20428;-70
2023/05/17 04:41:24;;;;;;;10.23;2.80;;;7.90;99.90;;;;;;5083885;28;20419;-72
2023/05/17 04:43:50;;;;;;;6.10;3.07;;;8.00;99.90;;;;;;5072740;28;20195;-71
2023/05/17 04:46:16;;;;;;;10.40;3.00;;;8.00;99.90;;;;;;5078567;28;20931;-71
2023/05/17 04:49:01;;;;;;;7.07;2.40;;;7.90;99.90;;;;;;5089050;28;20642;-73
2023/05/17 04:54:31;;;;;;;13.57;2.87;;;7.90;99.90;;;;;;5093605;28;20406;-70
2023/05/17 04:56:57;;;;;;;6.50;2.20;;;7.90;99.90;;;;;;5077721;28;20773;-71
2023/05/17 04:59:23;;;;;;;7.77;2.60;;;7.90;99.90;;;;;;5073775;28;20404;-70
2023/05/17 05:01:49;;;;;;;8.30;2.70;;;8.00;99.90;;;;;;5077557;28;20424;-70
2023/05/17 05:04:15;;;;;;;10.83;2.63;;;8.00;99.90;;;;;;5093995;28;20423;-71
2023/05/17 05:06:41;;;;;;;5.60;2.77;;;8.10;99.90;;;;;;5076630;28;20460;-71
2023/05/17 05:09:07;;;;;;;6.30;3.03;;;8.10;99.90;;;;;;5072472;28;20171;-70
2023/05/17 05:11:35;;;;;;;10.27;3.43;;;8.20;99.90;;;;;;5085643;28;20622;-70
2023/05/17 05:14:01;;;;;;;3.17;2.83;;;8.30;99.90;;;;;;5093008;28;20439;-71
2023/05/17 05:16:26;;;;;;;8.10;3.27;;;8.20;99.90;;;;;;5076450;28;20416;-73
2023/05/17 05:18:52;;;;;;;10.87;3.20;;;8.30;99.90;;;;;;5073533;28;20181;-71
2023/05/17 05:21:18;;;;;;;7.53;2.70;;;8.30;99.90;;;;;;5078594;28;20211;-71
2023/05/17 05:23:44;;;;;;;7.50;3.07;;;8.30;99.90;;;;;;5091209;28;20231;-71
2023/05/17 05:26:10;;;;;;;5.20;2.93;;;8.20;99.90;;;;;;5080231;28;20781;-72
2023/05/17 05:28:36;;;;;;;5.57;3.23;;;8.40;99.90;;;;;;5071973;28;20174;-70
2023/05/17 05:31:02;;;;;;;12.40;3.20;;;8.40;99.90;;;;;;5083543;28;20181;-73
2023/05/17 05:33:27;;;;;;;12.50;2.83;;;8.50;99.90;;;;;;5091971;28;20463;-70
2023/05/17 05:35:53;;;;;;;5.43;3.00;;;8.50;99.90;;;;;;5082740;28;20190;-72
2023/05/17 05:38:19;;;;;;;11.77;3.17;;;8.50;99.90;;;;;;5073423;28;20672;-71
2023/05/17 05:40:47;;;;;;;12.23;3.43;;;8.60;99.90;;;;;;5078305;28;20242;-68
2023/05/17 05:43:29;;;;;;;8.43;2.73;;;8.50;99.90;;;;;;5093126;28;20188;-70
2023/05/17 05:45:55;;;;;;;13.13;3.90;;;8.50;99.90;;;;;;5084586;28;20428;-68
2023/05/17 05:48:21;;;;;;;5.83;2.50;;;8.50;99.90;;;;;;5071389;28;20468;-69
2023/05/17 05:50:47;;;;;;;23.03;3.70;;;8.40;99.90;;;;;;5074658;28;20265;-69
2023/05/17 05:53:12;;;;;;;8.50;3.17;;;8.50;99.90;;;;;;5075306;28;20446;-70
2023/05/17 05:55:41;;;;;;;6.20;3.40;;;8.60;99.90;;;;;;5081702;28;20177;-69
2023/05/17 05:58:07;;;;;;;4.70;2.87;;;8.70;99.90;;;;;;5089604;28;20183;-68
2023/05/17 06:00:36;;;;;;;9.83;2.80;;;8.70;99.90;;;;;;5088840;28;20445;-69
2023/05/17 06:03:03;;;;;;;9.23;3.63;;;8.80;99.90;;;;;;5072997;28;20850;-71
2023/05/17 06:05:29;;;;;;;14.90;4.47;;;8.80;99.90;;;;;;5073257;28;20418;-69
2023/05/17 06:07:54;;;;;;;10.30;2.80;;;9.00;99.90;;;;;;5093012;28;20952;-69
2023/05/17 06:10:21;;;;;;;3.90;2.90;;;9.00;99.90;;;;;;5089301;28;20580;-71
2023/05/17 06:12:46;;;;;;;10.77;3.60;;;9.00;99.90;;;;;;5072762;28;20565;-68
2023/05/17 06:15:12;;;;;;;9.10;4.20;;;9.00;99.90;;;;;;5071845;28;20416;-70
2023/05/17 06:17:38;;;;;;;12.77;3.20;;;9.10;99.90;;;;;;5089664;28;20208;-68
2023/05/17 06:20:04;;;;;;;7.33;2.97;;;9.10;99.90;;;;;;5091975;28;20167;-73
2023/05/17 06:22:29;;;;;;;7.20;3.30;;;9.10;99.90;;;;;;5084649;28;20288;-69
2023/05/17 06:24:55;;;;;;;12.30;4.43;;;9.10;99.90;;;;;;5091912;28;20439;-69
2023/05/17 06:27:21;;;;;;;5.83;2.90;;;9.10;99.90;;;;;;5074692;28;20206;-72
2023/05/17 06:29:46;;;;;;;10.63;4.00;;;9.20;99.90;;;;;;5076716;28;20320;-71
2023/05/17 06:32:12;;;;;;;14.43;5.70;;;9.20;99.90;;;;;;5092913;28;20568;-68
2023/05/17 06:34:38;;;;;;;8.23;3.43;;;9.30;99.90;;;;;;5096895;28;20177;-69
2023/05/17 06:37:05;;;;;;;5.60;3.20;;;9.30;99.90;;;;;;5081052;28;20819;-71
2023/05/17 06:39:30;;;;;;;7.57;3.47;;;9.40;99.90;;;;;;5096828;28;20407;-69
2023/05/17 06:41:56;;;;;;;6.10;2.70;;;9.50;99.90;;;;;;5077093;28;20959;-71
2023/05/17 06:44:22;;;;;;;10.23;2.93;;;9.40;99.90;;;;;;5076383;28;20216;-69
2023/05/17 06:46:48;;;;;;;5.57;2.53;;;9.50;99.90;;;;;;5090919;28;20203;-69
2023/05/17 06:49:15;;;;;;;10.10;3.30;;;9.50;99.90;;;;;;5094093;28;20628;-72
2023/05/17 06:51:41;;;;;;;9.17;3.70;;;9.60;99.90;;;;;;5081436;28;20216;-69
2023/05/17 06:54:07;;;;;;;6.10;3.13;;;9.80;99.90;;;;;;5077019;28;20456;-70
2023/05/17 06:56:32;;;;;;;8.00;3.53;;;9.90;99.90;;;;;;5095209;28;20236;-69
2023/05/17 06:58:58;;;;;;;10.40;3.70;;;10.00;99.90;;;;;;5075771;28;20189;-69
2023/05/17 07:01:24;;;;;;;9.43;3.33;;;10.10;99.90;;;;;;5075289;28;20173;-66
2023/05/17 07:03:50;;;;;;;7.33;3.10;;;10.20;99.90;;;;;;5075911;28;20696;-71
2023/05/17 07:06:16;;;;;;;9.00;3.73;;;10.30;99.90;;;;;;5075687;28;20407;-69
2023/05/17 07:08:41;;;;;;;12.83;3.30;;;10.20;99.90;;;;;;5075600;28;20176;-68
2023/05/17 07:11:07;;;;;;;9.47;3.40;;;10.20;99.90;;;;;;5075153;28;20614;-69
2023/05/17 07:13:32;;;;;;;14.13;2.93;;;10.00;99.90;;;;;;5075394;28;20670;-71
2023/05/17 07:15:59;;;;;;;8.73;2.93;;;10.10;99.90;;;;;;5075797;28;20173;-69
2023/05/17 07:18:25;;;;;;;8.07;3.47;;;10.30;99.90;;;;;;5075805;28;20659;-71
2023/05/17 07:20:50;;;;;;;9.17;3.37;;;10.20;99.90;;;;;;5075039;28;20404;-71
2023/05/17 07:23:16;;;;;;;5.80;2.83;;;10.10;99.90;;;;;;5075476;28;20514;-70
2023/05/17 07:25:42;;;;;;;5.73;2.70;;;10.00;99.90;;;;;;5088630;28;20188;-71
2023/05/17 07:28:08;;;;;;;5.13;2.93;;;10.10;99.90;;;;;;5093775;28;20570;-71
2023/05/17 07:30:33;;;;;;;4.30;2.63;;;10.20;99.90;;;;;;5095019;28;20522;-69
2023/05/17 07:32:59;;;;;;;3.23;2.50;;;10.40;99.90;;;;;;5095783;28;20185;-70
2023/05/17 07:35:25;;;;;;;9.90;2.70;;;10.30;99.90;;;;;;5094733;28;20203;-68
2023/05/17 07:37:50;;;;;;;6.00;2.63;;;10.30;99.90;;;;;;5094070;28;20181;-69
2023/05/17 07:40:16;;;;;;;3.63;2.80;;;10.40;99.90;;;;;;5093045;28;20264;-70
2023/05/17 07:42:42;;;;;;;7.63;3.10;;;10.50;99.90;;;;;;5095137;28;20193;-72
2023/05/17 07:45:08;;;;;;;6.23;2.60;;;10.60;99.90;;;;;;5095220;28;20879;-69
2023/05/17 07:47:34;;;;;;;5.87;2.83;;;10.70;99.90;;;;;;5095564;28;20249;-71
2023/05/17 07:50:00;;;;;;;5.27;2.50;;;10.80;99.90;;;;;;5095136;28;20400;-67
2023/05/17 07:52:25;;;;;;;3.57;2.93;;;10.80;99.90;;;;;;5093487;28;20443;-69
2023/05/17 07:54:51;;;;;;;9.67;3.13;;;10.80;99.90;;;;;;5095582;28;20185;-66
2023/05/17 07:57:18;;;;;;;6.00;2.20;;;11.00;99.90;;;;;;5095362;28;20530;-69
2023/05/17 07:59:43;;;;;;;11.50;3.00;;;11.00;99.90;;;;;;5095369;28;20165;-69
2023/05/17 08:02:09;;;;;;;5.87;2.23;;;11.20;99.90;;;;;;5094297;28;20414;-67
2023/05/17 08:04:35;;;;;;;7.60;2.63;;;11.30;99.90;;;;;;5094464;28;20719;-67
2023/05/17 08:07:01;;;;;;;5.40;2.40;;;11.40;99.90;;;;;;5094141;28;20658;-69
2023/05/17 08:09:27;;;;;;;7.13;3.00;;;11.30;99.90;;;;;;5080358;28;20627;-71
2023/05/17 08:11:52;;;;;;;9.80;2.30;;;11.10;99.90;;;;;;5072962;28;20398;-68
2023/05/17 08:14:22;;;;;;;5.37;2.63;;;11.10;99.90;;;;;;5073317;28;20822;-67
2023/05/17 08:16:50;;;;;;;7.93;2.17;;;11.20;99.90;;;;;;5075118;28;20185;-67
2023/05/17 08:19:17;;;;;;;4.43;2.53;;;11.10;99.90;;;;;;5074686;28;20454;-67
2023/05/17 08:21:45;;;;;;;4.30;2.67;;;11.10;99.90;;;;;;5073160;28;20709;-68
2023/05/17 08:24:11;;;;;;;5.03;2.50;;;11.00;99.90;;;;;;5074134;28;20431;-68
2023/05/17 08:26:37;;;;;;;9.33;2.60;;;11.00;99.90;;;;;;5074292;28;20529;-67
2023/05/17 08:29:03;;;;;;;8.10;2.63;;;11.30;99.90;;;;;;5073291;28;20902;-68
2023/05/17 08:31:30;;;;;;;7.00;2.33;;;11.40;99.90;;;;;;5073558;28;20432;-69
2023/05/17 08:33:56;;;;;;;7.23;2.63;;;11.40;99.90;;;;;;5074232;28;20503;-67
2023/05/17 08:36:22;;;;;;;5.33;2.30;;;11.50;99.90;;;;;;5087366;28;20991;-69
2023/05/17 08:38:47;;;;;;;6.50;2.43;;;11.40;99.90;;;;;;5094437;28;20457;-68
2023/05/17 08:41:13;;;;;;;5.23;2.50;;;11.50;99.90;;;;;;5092959;28;20859;-68
2023/05/17 08:43:39;;;;;;;2.90;2.07;;;11.60;99.90;;;;;;5094351;28;20232;-68
2023/05/17 08:46:05;;;;;;;4.60;2.03;;;11.90;99.90;;;;;;5093263;28;20175;-67
2023/05/17 08:48:35;;;;;;;3.80;2.20;;;12.30;99.90;;;;;;5093216;28;20211;-67
2023/05/17 08:51:01;;;;;;;10.83;2.30;;;12.40;99.90;;;;;;5092992;28;20742;-70
2023/05/17 08:53:28;;;;;;;6.07;2.70;;;12.00;99.90;;;;;;5094217;28;20394;-68
2023/05/17 08:56:01;;;;;;;5.00;2.97;;;11.80;99.90;;;;;;5093186;28;20390;-69
2023/05/17 08:58:29;;;;;;;5.90;2.03;;;11.60;99.90;;;;;;5094161;28;20465;-67
2023/05/17 09:00:57;;;;;;;4.93;2.57;;;11.70;99.90;;;;;;5092605;28;20457;-68
2023/05/17 09:03:24;;;;;;;3.77;1.90;;;12.00;99.90;;;;;;5087387;28;20442;-68
2023/05/17 09:05:53;;;;;;;8.27;2.77;;;12.10;99.90;;;;;;5073757;28;20369;-68
2023/05/17 09:08:21;;;;;;;3.43;1.80;;;12.00;99.90;;;;;;5073685;28;20496;-66
2023/05/17 09:10:46;;;;;;;3.30;2.10;;;12.00;99.90;;;;;;5072724;28;20405;-67
2023/05/17 09:13:12;;;;;;;11.03;2.90;;;12.10;99.90;;;;;;5072466;28;20490;-67
2023/05/17 09:15:46;;;;;;;5.63;2.20;;;12.20;99.90;;;;;;5073668;28;20569;-66
2023/05/17 09:18:12;;;;;;;7.70;2.43;;;12.40;99.90;;;;;;5071812;28;20273;-64
2023/05/17 09:20:39;;;;;;;5.60;2.27;;;12.70;99.90;;;;;;5072569;28;20371;-67
2023/05/17 09:23:08;;;;;;;5.93;2.17;;;13.00;99.90;;;;;;5073156;28;20414;-67
2023/05/17 09:25:35;;;;;;;4.73;2.13;;;13.20;99.90;;;;;;5073496;28;20414;-64
2023/05/17 09:28:04;;;;;;;2.53;1.90;;;13.10;99.90;;;;;;5073302;28;20418;-67
2023/05/17 09:30:32;;;;;;;5.27;1.70;;;13.00;99.90;;;;;;5072141;28;20434;-64
2023/05/17 09:33:05;;;;;;;6.67;1.80;;;13.00;99.90;;;;;;5073209;28;20798;-65
2023/05/17 09:35:32;;;;;;;5.37;2.10;;;13.10;99.90;;;;;;5073259;28;20482;-65
2023/05/17 09:38:06;;;;;;;3.60;2.07;;;13.40;99.90;;;;;;5072718;28;20412;-64
2023/05/17 09:40:32;;;;;;;2.60;1.80;;;13.40;99.90;;;;;;5079939;28;20518;-64
2023/05/17 09:42:58;;;;;;;4.80;2.10;;;13.40;99.90;;;;;;5093271;28;20804;-65
2023/05/17 09:45:25;;;;;;;4.80;1.80;;;13.80;99.90;;;;;;5079653;28;20200;-62
2023/05/17 09:47:51;;;;;;;6.20;2.10;;;14.00;99.90;;;;;;5073060;28;20464;-64
2023/05/17 09:50:18;;;;;;;7.43;2.10;;;14.00;99.90;;;;;;5072313;28;20890;-69
2023/05/17 09:52:44;;;;;;;3.93;1.63;;;14.20;99.90;;;;;;5078484;28;20821;-66
2023/05/17 09:55:10;;;;;;;4.17;1.83;;;14.30;99.90;;;;;;5092506;28;20378;-69
2023/05/17 09:57:38;;;;;;;10.37;2.20;;;14.80;99.90;;;;;;5092272;28;20181;-68
2023/05/17 10:00:13;;;;;;;3.10;1.67;;;15.10;99.90;;;;;;5092773;28;20374;-72
2023/05/17 10:02:41;;;;;;;4.30;1.73;;;14.60;99.90;;;;;;5092247;28;20782;-67
2023/05/17 10:05:10;;;;;;;5.63;1.97;;;14.30;99.90;;;;;;5093175;28;20403;-69
2023/05/17 10:07:37;;;;;;;4.90;2.30;;;14.70;99.90;;;;;;5093031;28;20783;-69
2023/05/17 10:10:04;;;;;;;6.23;2.30;;;15.50;99.90;;;;;;5092784;28;20409;-70
2023/05/17 10:12:35;;;;;;;4.53;3.40;;;16.30;99.90;;;;;;5086239;28;21014;-69
2023/05/17 10:15:01;;;;;;;7.90;2.57;;;16.70;99.90;;;;;;5072378;28;20405;-69
2023/05/17 10:17:30;;;;;;;7.53;2.03;;;16.10;99.90;;;;;;5072802;28;20412;-68
2023/05/17 10:19:57;;;;;;;4.90;2.30;;;15.30;99.90;;;;;;5072518;28;20379;-68
2023/05/17 10:22:23;;;;;;;8.33;2.37;;;14.80;99.90;;;;;;5072091;28;20391;-69
2023/05/17 10:24:50;;;;;;;3.73;2.30;;;14.50;99.90;;;;;;5072736;28;20762;-68
2023/05/17 10:27:16;;;;;;;7.70;2.40;;;14.50;99.90;;;;;;5078003;28;20595;-71
2023/05/17 10:29:43;;;;;;;10.13;2.63;;;15.00;99.90;;;;;;5092904;28;20472;-71
2023/05/17 10:32:12;;;;;;;4.43;1.87;;;15.50;99.90;;;;;;5092000;28;20452;-68
2023/05/17 10:34:39;;;;;;;4.20;2.07;;;15.90;99.90;;;;;;5092333;28;20430;-72
2023/05/17 10:37:05;;;;;;;2.33;1.50;;;16.10;99.90;;;;;;5092631;28;20411;-71
2023/05/17 10:39:33;;;;;;;10.20;2.77;;;15.50;99.90;;;;;;5092786;28;20429;-71
2023/05/17 10:42:03;;;;;;;3.90;1.67;;;14.50;99.90;;;;;;5090752;28;20431;-71
2023/05/17 10:44:32;;;;;;;4.67;1.63;;;14.00;99.90;;;;;;5092797;28;20378;-71
2023/05/17 10:46:59;;;;;;;3.20;2.00;;;13.80;99.90;;;;;;5092744;28;20422;-70
2023/05/17 10:49:35;;;;;;;2.33;1.77;;;14.50;99.90;;;;;;5092660;28;20399;-70
2023/05/17 10:52:12;;;;;;;3.87;1.57;;;15.60;99.90;;;;;;5091443;28;20407;-69
2023/05/17 10:54:42;;;;;;;4.67;1.87;;;16.30;99.90;;;;;;5090777;28;20369;-68
2023/05/17 10:57:17;;;;;;;3.70;1.50;;;15.90;99.90;;;;;;5072480;28;20453;-71
2023/05/17 11:00:00;;;;;;;2.93;1.20;;;15.80;99.90;;;;;;5072417;28;20742;-70
2023/05/17 11:02:26;;;;;;;5.77;1.90;;;15.00;99.90;;;;;;5070362;28;20920;-71
2023/05/17 11:04:54;;;;;;;3.83;1.60;;;14.60;99.90;;;;;;5072641;28;20386;-70
2023/05/17 11:07:23;;;;;;;2.60;1.53;;;14.90;99.90;;;;;;5071030;28;20868;-68
2023/05/17 11:10:11;;;;;;;6.23;2.57;;;14.90;99.90;;;;;;5071404;28;20399;-72
2023/05/17 11:12:42;;;;;;;2.80;1.43;;;14.80;99.90;;;;;;5071949;28;20409;-68
2023/05/17 11:15:09;;;;;;;2.70;1.60;;;15.50;99.90;;;;;;5075960;28;20416;-68
2023/05/17 11:17:50;;;;;;;2.43;2.23;;;16.00;99.90;;;;;;5075977;28;20396;-68
2023/05/17 11:20:24;;;;;;;6.37;1.60;;;16.70;99.90;;;;;;5074932;28;20404;-71
2023/05/17 11:23:03;;;;;;;2.47;1.40;;;17.90;99.90;;;;;;5075611;28;20908;-69
2023/05/17 11:25:31;;;;;;;2.67;1.53;;;17.80;99.90;;;;;;5088650;28;20461;-70
2023/05/17 11:27:57;;;;;;;3.17;1.40;;;17.30;99.90;;;;;;5095728;28;20461;-68
2023/05/17 11:30:29;;;;;;;4.53;1.87;;;16.50;99.90;;;;;;5094464;28;20505;-70
2023/05/17 11:33:05;;;;;;;3.60;1.37;;;16.60;99.90;;;;;;5095872;28;20416;-68
2023/05/17 11:35:36;;;;;;;2.80;1.47;;;16.00;99.90;;;;;;5095878;28;20406;-69
2023/05/17 11:38:20;;;;;;;3.60;1.20;;;16.40;99.90;;;;;;5094609;28;20438;-68
2023/05/17 11:40:47;;;;;;;4.10;1.73;;;17.40;99.90;;;;;;5094780;28;20821;-68
2023/05/17 11:43:15;;;;;;;4.27;1.60;;;17.90;99.90;;;;;;5095526;28;20474;-71
2023/05/17 11:45:46;;;;;;;5.20;1.30;;;17.40;99.90;;;;;;5095643;28;20423;-69
2023/05/17 11:48:12;;;;;;;2.43;1.57;;;16.60;99.90;;;;;;5094903;28;20446;-70
2023/05/17 11:50:39;;;;;;;3.47;1.30;;;15.80;99.90;;;;;;5094365;28;20449;-69
2023/05/17 11:53:06;;;;;;;2.47;1.50;;;15.20;99.90;;;;;;5094546;28;20447;-70
2023/05/17 11:55:38;;;;;;;3.97;1.93;;;15.50;99.90;;;;;;5095462;28;20396;-70
2023/05/17 11:58:09;;;;;;;5.90;2.03;;;16.30;99.90;;;;;;5095243;28;20407;-71
2023/05/17 12:00:37;;;;;;;4.17;2.20;;;16.90;99.90;;;;;;5094254;28;20457;-69
2023/05/17 12:03:20;;;;;;;6.03;2.10;;;16.80;99.90;;;;;;5095352;28;20427;-68
2023/05/17 12:05:48;;;;;;;3.60;1.93;;;16.50;99.90;;;;;;5095197;28;20399;-70
2023/05/17 12:08:19;;;;;;;4.03;1.33;;;16.70;99.90;;;;;;5092498;28;20517;-69
2023/05/17 12:10:51;;;;;;;2.10;1.30;;;18.10;99.90;;;;;;5094135;28;20411;-70
2023/05/17 12:13:20;;;;;;;8.77;1.50;;;18.80;99.90;;;;;;5094961;28;20415;-71
2023/05/17 12:15:58;;;;;;;2.70;1.40;;;18.60;99.90;;;;;;5095022;28;20876;-73
2023/05/17 12:18:37;;;;;;;2.03;1.47;;;18.50;99.90;;;;;;5094784;28;20412;-71
2023/05/17 12:21:04;;;;;;;5.43;1.47;;;17.80;99.90;;;;;;5094013;28;20396;-72
2023/05/17 12:23:32;;;;;;;5.47;1.57;;;17.20;99.90;;;;;;5076248;28;20464;-69
2023/05/17 12:26:13;;;;;;;6.93;1.93;;;17.10;99.90;;;;;;5073562;28;20404;-71
2023/05/17 12:28:40;;;;;;;4.20;1.60;;;17.00;99.90;;;;;;5074099;28;20470;-68
2023/05/17 12:31:19;;;;;;;6.57;1.80;;;16.30;99.90;;;;;;5072303;28;20408;-68
2023/05/17 12:33:46;;;;;;;2.87;1.60;;;15.70;99.90;;;;;;5074230;28;20981;-67
2023/05/17 12:36:13;;;;;;;6.30;1.80;;;16.30;99.90;;;;;;5074062;28;20921;-68
2023/05/17 12:38:40;;;;;;;3.70;1.23;;;17.00;99.90;;;;;;5074232;28;20416;-71
2023/05/17 12:41:09;;;;;;;7.33;2.20;;;17.50;99.90;;;;;;5073339;28;20419;-71
2023/05/17 12:43:36;;;;;;;5.73;1.77;;;17.50;99.90;;;;;;5072915;28;20440;-69
2023/05/17 12:46:10;;;;;;;5.70;1.90;;;17.10;99.90;;;;;;5073580;28;21056;-68
2023/05/17 12:48:40;;;;;;;7.23;1.50;;;16.50;99.90;;;;;;5073907;28;20443;-68
2023/05/17 12:51:13;;;;;;;5.47;1.30;;;16.20;99.90;;;;;;5072611;28;20816;-68
2023/05/17 12:53:44;;;;;;;9.90;1.57;;;16.40;99.90;;;;;;5073980;28;20432;-70
2023/05/17 12:56:18;;;;;;;6.43;1.60;;;16.90;99.90;;;;;;5086421;28;20927;-69
2023/05/17 12:59:02;;;;;;;5.23;2.40;;;16.90;99.90;;;;;;5094004;28;20407;-71
2023/05/17 13:01:33;;;;;;;2.23;1.50;;;16.30;99.90;;;;;;5091925;28;20423;-69